createdAt,value
2019-01-10T00:04:20.293Z,60.84
2019-01-10T00:09:24.339Z,61.16
2019-01-10T00:14:28.531Z,60.58
2019-01-10T00:19:32.614Z,60.58
2019-01-10T00:24:36.815Z,60.45
2019-01-10T00:29:40.922Z,60.39
2019-01-10T00:34:45.040Z,60.49
2019-01-10T00:39:49.156Z,61.16
2019-01-10T00:44:53.274Z,61.03
2019-01-10T00:49:57.376Z,61.03
2019-01-10T00:55:01.457Z,61.47
2019-01-10T01:00:08.869Z,61.74
2019-01-10T01:05:14.458Z,61.31
2019-01-10T01:10:23.762Z,60.91
2019-01-10T01:15:27.930Z,60.62
2019-01-10T01:20:32.051Z,61.12
2019-01-10T01:25:36.141Z,61.19
2019-01-10T01:30:40.313Z,61.00
2019-01-10T01:35:44.402Z,61.53
2019-01-10T01:40:48.586Z,61.65
2019-01-10T01:45:52.682Z,61.87
2019-01-10T01:50:56.892Z,61.45
2019-01-10T01:56:01.077Z,61.66
2019-01-10T02:01:05.371Z,61.22
2019-01-10T02:06:09.485Z,61.16
2019-01-10T02:11:13.674Z,61.00
2019-01-10T02:16:17.738Z,60.98
2019-01-10T02:21:21.775Z,61.81
2019-01-10T02:26:25.889Z,61.81
2019-01-10T02:31:29.980Z,61.86
2019-01-10T02:36:34.076Z,61.91
2019-01-10T02:41:38.250Z,62.46
2019-01-10T02:46:42.290Z,62.45
2019-01-10T02:51:46.396Z,61.77
2019-01-10T02:56:50.498Z,61.82
2019-01-10T03:01:54.530Z,60.90
2019-01-10T03:06:58.654Z,61.07
2019-01-10T03:12:02.758Z,61.73
2019-01-10T03:17:06.955Z,61.48
2019-01-10T03:22:10.979Z,61.82
2019-01-10T03:27:15.088Z,62.40
2019-01-10T03:32:19.195Z,62.70
2019-01-10T03:37:23.240Z,62.21
2019-01-10T03:42:27.285Z,62.24
2019-01-10T03:47:31.403Z,61.15
2019-01-10T03:52:35.548Z,61.24
2019-01-10T03:57:39.674Z,60.86
2019-01-10T04:02:43.709Z,61.65
2019-01-10T04:07:47.816Z,61.35
2019-01-10T04:12:51.940Z,61.35
2019-01-10T04:17:56.117Z,62.06
2019-01-10T04:23:00.254Z,62.42
2019-01-10T04:28:04.404Z,62.67
2019-01-10T04:33:08.443Z,62.67
2019-01-10T04:38:12.567Z,62.98
2019-01-10T04:43:16.710Z,62.25
2019-01-10T04:48:20.743Z,61.46
2019-01-10T04:53:26.714Z,61.87
2019-01-10T04:58:30.621Z,62.05
2019-01-10T05:03:34.660Z,62.17
2019-01-10T05:08:38.691Z,62.46
2019-01-10T05:13:42.826Z,62.44
2019-01-10T05:18:46.939Z,62.57
2019-01-10T05:23:50.980Z,62.74
2019-01-10T05:28:55.025Z,63.46
2019-01-10T05:33:59.254Z,63.46
2019-01-10T05:39:04.735Z,63.17
2019-01-10T05:44:08.761Z,61.96
2019-01-10T05:49:12.785Z,61.80
2019-01-10T05:54:16.906Z,61.80
2019-01-10T05:59:20.925Z,61.93
2019-01-10T06:04:25.027Z,61.93
2019-01-10T06:09:29.049Z,61.92
2019-01-10T06:14:35.697Z,62.24
2019-01-10T06:19:38.976Z,62.80
2019-01-10T06:24:43.006Z,62.58
2019-01-10T06:29:47.154Z,63.07
2019-01-10T06:34:51.191Z,62.88
2019-01-10T06:39:55.228Z,62.38
2019-01-10T06:44:59.340Z,62.38
2019-01-10T06:50:03.661Z,61.66
2019-01-10T06:55:08.816Z,61.08
2019-01-10T07:00:21.126Z,61.08
2019-01-10T07:05:25.299Z,61.71
2019-01-10T07:10:30.626Z,62.04
2019-01-10T07:15:34.738Z,62.70
2019-01-10T07:20:40.317Z,62.73
2019-01-10T07:25:44.442Z,62.73
2019-01-10T07:30:48.546Z,62.73
2019-01-10T07:35:57.813Z,62.73
2019-01-10T07:41:01.843Z,61.76
2019-01-10T07:46:07.038Z,61.27
2019-01-10T07:51:11.244Z,45.15
2019-01-10T07:56:15.442Z,47.95
2019-01-10T08:01:19.467Z,46.71
2019-01-10T08:06:23.598Z,47.50
2019-01-10T08:11:27.704Z,47.30
2019-01-10T08:16:31.807Z,47.95
2019-01-10T08:21:36.032Z,48.56
2019-01-10T08:26:40.069Z,48.56
2019-01-10T08:31:44.249Z,49.82
2019-01-10T08:36:48.370Z,50.53
2019-01-10T08:41:52.400Z,51.60
2019-01-10T08:46:56.499Z,52.45
2019-01-10T08:52:00.674Z,52.91
2019-01-10T08:57:07.477Z,52.91
2019-01-10T09:02:11.555Z,53.72
2019-01-10T09:07:15.902Z,53.99
2019-01-10T09:12:20.107Z,53.97
2019-01-10T09:17:24.233Z,54.04
2019-01-10T09:22:28.256Z,53.51
2019-01-10T09:27:32.295Z,53.56
2019-01-10T09:32:36.412Z,53.86
2019-01-10T09:37:40.689Z,53.86
2019-01-10T09:42:45.126Z,54.59
2019-01-10T09:47:49.733Z,54.59
2019-01-10T09:52:54.524Z,55.27
2019-01-10T09:57:58.659Z,55.88
2019-01-10T10:03:02.705Z,56.48
2019-01-10T10:08:07.012Z,57.27
2019-01-10T10:13:11.137Z,56.74
2019-01-10T10:18:15.318Z,56.74
2019-01-10T10:23:26.735Z,56.58
2019-01-10T10:28:25.282Z,56.38
2019-01-10T10:33:29.337Z,57.04
2019-01-10T10:38:33.392Z,57.47
2019-01-10T10:43:37.542Z,57.18
2019-01-10T10:48:41.738Z,57.94
2019-01-10T10:53:45.946Z,57.94
2019-01-10T10:58:50.081Z,58.22
2019-01-10T11:03:54.573Z,57.94
2019-01-10T11:08:58.759Z,57.88
2019-01-10T11:14:02.879Z,57.63
2019-01-10T11:19:07.084Z,57.63
2019-01-10T11:24:11.289Z,57.56
2019-01-10T11:29:15.386Z,58.34
2019-01-10T11:34:19.531Z,58.66
2019-01-10T11:39:23.719Z,58.96
2019-01-10T11:44:27.788Z,58.96
2019-01-10T11:49:31.947Z,59.08
2019-01-10T11:54:36.071Z,59.10
2019-01-10T11:59:40.355Z,58.59
2019-01-10T12:04:44.563Z,58.59
2019-01-10T12:09:48.629Z,57.84
2019-01-10T12:14:52.666Z,57.84
2019-01-10T12:19:56.780Z,58.57
2019-01-10T12:25:00.837Z,58.66
2019-01-10T12:30:07.117Z,58.88
2019-01-10T12:35:11.317Z,59.07
2019-01-10T12:40:15.577Z,59.39
2019-01-10T12:45:20.608Z,59.81
2019-01-10T12:50:30.051Z,59.95
2019-01-10T12:55:34.243Z,59.95
2019-01-10T13:00:40.520Z,43.47
2019-01-10T13:05:44.458Z,43.47
2019-01-10T13:10:48.596Z,47.44
2019-01-10T13:15:52.710Z,45.01
2019-01-10T13:20:56.903Z,45.24
2019-01-10T13:26:00.934Z,45.65
2019-01-10T13:31:05.089Z,46.36
2019-01-10T13:36:09.206Z,46.86
2019-01-10T13:41:13.325Z,47.79
2019-01-10T13:46:17.562Z,48.85
2019-01-10T13:51:21.678Z,49.25
2019-01-10T13:56:25.783Z,50.21
2019-01-10T14:01:29.876Z,51.01
2019-01-10T14:06:33.986Z,51.87
2019-01-10T14:11:38.113Z,52.15
2019-01-10T14:16:42.485Z,52.15
2019-01-10T14:21:47.008Z,52.39
2019-01-10T14:26:51.388Z,54.60
2019-01-10T14:31:55.918Z,54.82
2019-01-10T14:36:59.952Z,57.27
2019-01-10T14:42:04.264Z,57.27
2019-01-10T14:47:08.498Z,58.23
2019-01-10T14:52:12.899Z,58.49
2019-01-10T14:57:17.207Z,58.63
2019-01-10T15:02:22.086Z,58.06
2019-01-10T15:07:26.299Z,57.26
2019-01-10T15:12:30.341Z,58.28
2019-01-10T15:17:34.549Z,57.78
2019-01-10T15:22:38.735Z,57.78
2019-01-10T15:27:42.851Z,57.46
2019-01-10T15:32:47.050Z,57.95
2019-01-10T15:37:51.072Z,57.81
2019-01-10T15:42:55.301Z,57.72
2019-01-10T15:47:59.494Z,57.96
2019-01-10T15:53:03.699Z,57.96
2019-01-10T15:58:07.864Z,58.07
2019-01-10T16:03:12.039Z,57.59
2019-01-10T16:08:16.096Z,57.87
2019-01-10T16:13:20.261Z,58.38
2019-01-10T16:18:24.331Z,58.30
2019-01-10T16:23:28.520Z,58.30
2019-01-10T16:28:32.573Z,58.37
2019-01-10T16:33:36.613Z,57.76
2019-01-10T16:38:40.747Z,57.64
2019-01-10T16:43:44.902Z,57.50
2019-01-10T16:48:48.952Z,58.07
2019-01-10T16:53:53.064Z,57.70
2019-01-10T16:58:57.294Z,57.69
2019-01-10T17:04:01.499Z,57.76
2019-01-10T17:09:09.049Z,59.37
2019-01-10T17:14:13.081Z,59.28
2019-01-10T17:19:17.204Z,58.77
2019-01-10T17:24:21.398Z,59.07
2019-01-10T17:29:25.439Z,60.06
2019-01-10T17:34:29.728Z,59.84
2019-01-10T17:39:33.850Z,59.43
2019-01-10T17:44:38.323Z,59.43
2019-01-10T17:49:42.592Z,59.31
2019-01-10T17:54:46.636Z,59.51
2019-01-10T17:59:50.878Z,59.62
2019-01-10T18:04:54.941Z,59.56
2019-01-10T18:09:59.146Z,59.56
2019-01-10T18:15:03.457Z,59.02
2019-01-10T18:20:11.820Z,58.77
2019-01-10T18:25:16.038Z,58.90
2019-01-10T18:30:21.734Z,58.90
2019-01-10T18:35:26.728Z,58.90
2019-01-10T18:40:31.164Z,59.32
2019-01-10T18:45:35.958Z,59.32
2019-01-10T18:50:39.997Z,59.49
2019-01-10T18:55:44.135Z,59.39
2019-01-10T19:00:48.350Z,59.05
2019-01-10T19:05:52.757Z,58.39
2019-01-10T19:10:56.782Z,58.26
2019-01-10T19:16:00.817Z,58.26
2019-01-10T19:21:04.973Z,57.50
2019-01-10T19:26:09.101Z,57.50
2019-01-10T19:31:13.150Z,58.12
2019-01-10T19:36:17.229Z,58.25
2019-01-10T19:41:21.377Z,57.74
2019-01-10T19:46:25.511Z,57.63
2019-01-10T19:51:29.540Z,56.60
2019-01-10T19:56:33.688Z,56.64
2019-01-10T20:01:38.622Z,56.64
2019-01-10T20:06:42.766Z,57.11
2019-01-10T20:11:47.035Z,57.63
2019-01-10T20:16:51.153Z,57.61
2019-01-10T20:21:55.199Z,57.29
2019-01-10T20:26:59.361Z,56.42
2019-01-10T20:32:03.554Z,56.46
2019-01-10T20:37:07.775Z,56.10
2019-01-10T20:42:11.957Z,56.04
2019-01-10T20:47:15.992Z,55.71
2019-01-10T20:52:20.041Z,55.94
2019-01-10T20:57:24.134Z,55.94
2019-01-10T21:02:29.624Z,56.54
2019-01-10T21:07:33.760Z,55.70
2019-01-10T21:12:38.002Z,56.83
2019-01-10T21:17:42.267Z,56.60
2019-01-10T21:22:46.462Z,56.60
2019-01-10T21:27:50.704Z,56.72
2019-01-10T21:32:56.178Z,57.36
2019-01-10T21:38:00.369Z,57.05
2019-01-10T21:43:04.940Z,57.05
2019-01-10T21:48:09.076Z,57.30
2019-01-10T21:53:13.638Z,57.19
2019-01-10T21:58:17.779Z,57.01
2019-01-10T22:03:21.969Z,57.13
2019-01-10T22:08:25.994Z,56.89
2019-01-10T22:13:30.028Z,56.89
2019-01-10T22:18:34.231Z,57.55
2019-01-10T22:23:39.472Z,57.58
2019-01-10T22:28:43.670Z,58.36
2019-01-10T22:33:47.732Z,58.05
2019-01-10T22:38:51.861Z,58.55
2019-01-10T22:43:55.911Z,58.65
2019-01-10T22:49:00.074Z,57.74
2019-01-10T22:54:04.193Z,57.55
2019-01-10T22:59:08.429Z,57.29
2019-01-10T23:04:14.962Z,57.68
2019-01-10T23:09:20.677Z,58.27
2019-01-10T23:14:24.826Z,57.95
2019-01-10T23:19:28.967Z,58.07
2019-01-10T23:24:33.078Z,58.47
2019-01-10T23:29:37.373Z,58.40
2019-01-10T23:34:48.287Z,58.22
2019-01-10T23:39:52.677Z,58.22
2019-01-10T23:44:56.781Z,58.10
2019-01-10T23:50:01.145Z,57.81
2019-01-10T23:55:06.538Z,57.81
